sensor_id;sensor_type;location;lat;lon;timestamp;P1;durP1;ratioP1;P2;durP2;ratioP2
20729;SDS011;10526;50.850;12.928;2022-10-16T00:03:20;5.72;;;1.13;;
20729;SDS011;10526;50.850;12.928;2022-10-16T00:07:49;1.95;;;1.00;;
20729;SDS011;10526;50.850;12.928;2022-10-16T00:12:11;1.48;;;1.13;;
20729;SDS011;10526;50.850;12.928;2022-10-16T00:16:34;2.75;;;1.00;;
20729;SDS011;10526;50.850;12.928;2022-10-16T00:21:01;11.75;;;4.72;;
20729;SDS011;10526;50.850;12.928;2022-10-16T00:25:32;3.55;;;1.27;;
20729;SDS011;10526;50.850;12.928;2022-10-16T00:29:55;3.13;;;1.38;;
20729;SDS011;10526;50.850;12.928;2022-10-16T00:34:19;3.03;;;1.25;;
20729;SDS011;10526;50.850;12.928;2022-10-16T00:38:42;8.80;;;3.15;;
20729;SDS011;10526;50.850;12.928;2022-10-16T00:43:10;4.63;;;1.65;;
20729;SDS011;10526;50.850;12.928;2022-10-16T00:47:59;10.68;;;4.18;;
20729;SDS011;10526;50.850;12.928;2022-10-16T00:52:22;5.30;;;2.22;;
20729;SDS011;10526;50.850;12.928;2022-10-16T00:56:45;1.85;;;1.20;;
20729;SDS011;10526;50.850;12.928;2022-10-16T01:01:08;1.27;;;0.80;;
20729;SDS011;10526;50.850;12.928;2022-10-16T01:05:39;3.78;;;0.93;;
20729;SDS011;10526;50.850;12.928;2022-10-16T01:10:26;3.53;;;1.40;;
20729;SDS011;10526;50.850;12.928;2022-10-16T01:15:20;3.67;;;1.73;;
20729;SDS011;10526;50.850;12.928;2022-10-16T01:24:50;4.03;;;1.60;;
20729;SDS011;10526;50.850;12.928;2022-10-16T01:29:21;4.18;;;1.90;;
20729;SDS011;10526;50.850;12.928;2022-10-16T01:38:52;1.05;;;0.73;;
20729;SDS011;10526;50.850;12.928;2022-10-16T01:43:22;1.17;;;1.08;;
20729;SDS011;10526;50.850;12.928;2022-10-16T01:47:53;2.50;;;0.80;;
20729;SDS011;10526;50.850;12.928;2022-10-16T01:52:17;1.92;;;1.00;;
20729;SDS011;10526;50.850;12.928;2022-10-16T01:56:44;2.85;;;1.20;;
20729;SDS011;10526;50.850;12.928;2022-10-16T02:01:10;1.70;;;1.10;;
20729;SDS011;10526;50.850;12.928;2022-10-16T02:05:47;4.43;;;1.73;;
20729;SDS011;10526;50.850;12.928;2022-10-16T02:10:18;5.45;;;2.42;;
20729;SDS011;10526;50.850;12.928;2022-10-16T02:14:42;2.70;;;1.35;;
20729;SDS011;10526;50.850;12.928;2022-10-16T02:19:05;4.85;;;2.10;;
20729;SDS011;10526;50.850;12.928;2022-10-16T02:23:37;2.85;;;0.80;;
20729;SDS011;10526;50.850;12.928;2022-10-16T02:28:12;1.40;;;0.80;;
20729;SDS011;10526;50.850;12.928;2022-10-16T02:32:41;3.95;;;0.90;;
20729;SDS011;10526;50.850;12.928;2022-10-16T02:37:06;7.78;;;3.00;;
20729;SDS011;10526;50.850;12.928;2022-10-16T02:41:30;2.38;;;0.60;;
20729;SDS011;10526;50.850;12.928;2022-10-16T02:45:53;0.55;;;0.55;;
20729;SDS011;10526;50.850;12.928;2022-10-16T02:50:15;1.05;;;0.75;;
20729;SDS011;10526;50.850;12.928;2022-10-16T02:54:38;3.40;;;1.35;;
20729;SDS011;10526;50.850;12.928;2022-10-16T02:59:00;1.40;;;0.93;;
20729;SDS011;10526;50.850;12.928;2022-10-16T03:03:23;5.72;;;1.00;;
20729;SDS011;10526;50.850;12.928;2022-10-16T03:07:46;1.20;;;0.90;;
20729;SDS011;10526;50.850;12.928;2022-10-16T03:12:08;1.38;;;1.00;;
20729;SDS011;10526;50.850;12.928;2022-10-16T03:16:33;1.65;;;0.93;;
20729;SDS011;10526;50.850;12.928;2022-10-16T03:20:55;2.28;;;1.20;;
20729;SDS011;10526;50.850;12.928;2022-10-16T03:25:18;14.40;;;5.53;;
20729;SDS011;10526;50.850;12.928;2022-10-16T03:29:41;1.52;;;1.00;;
20729;SDS011;10526;50.850;12.928;2022-10-16T03:34:03;5.63;;;1.17;;
20729;SDS011;10526;50.850;12.928;2022-10-16T03:38:25;4.68;;;2.22;;
20729;SDS011;10526;50.850;12.928;2022-10-16T03:42:48;4.00;;;1.60;;
20729;SDS011;10526;50.850;12.928;2022-10-16T03:47:10;3.00;;;1.65;;
20729;SDS011;10526;50.850;12.928;2022-10-16T03:51:32;21.38;;;10.75;;
20729;SDS011;10526;50.850;12.928;2022-10-16T03:55:55;3.63;;;1.35;;
20729;SDS011;10526;50.850;12.928;2022-10-16T04:00:17;3.75;;;1.23;;
20729;SDS011;10526;50.850;12.928;2022-10-16T04:04:40;2.90;;;1.13;;
20729;SDS011;10526;50.850;12.928;2022-10-16T04:09:02;2.63;;;1.48;;
20729;SDS011;10526;50.850;12.928;2022-10-16T04:13:25;1.80;;;1.20;;
20729;SDS011;10526;50.850;12.928;2022-10-16T04:17:47;2.67;;;1.17;;
20729;SDS011;10526;50.850;12.928;2022-10-16T04:22:09;1.98;;;1.15;;
20729;SDS011;10526;50.850;12.928;2022-10-16T04:26:32;3.28;;;1.40;;
20729;SDS011;10526;50.850;12.928;2022-10-16T04:30:55;3.33;;;1.00;;
20729;SDS011;10526;50.850;12.928;2022-10-16T04:35:18;3.53;;;1.25;;
20729;SDS011;10526;50.850;12.928;2022-10-16T04:39:41;1.85;;;1.00;;
20729;SDS011;10526;50.850;12.928;2022-10-16T04:44:04;6.15;;;2.13;;
20729;SDS011;10526;50.850;12.928;2022-10-16T04:48:26;2.63;;;1.05;;
20729;SDS011;10526;50.850;12.928;2022-10-16T04:52:49;3.60;;;1.75;;
20729;SDS011;10526;50.850;12.928;2022-10-16T04:57:11;0.65;;;0.65;;
20729;SDS011;10526;50.850;12.928;2022-10-16T05:01:34;1.55;;;0.80;;
20729;SDS011;10526;50.850;12.928;2022-10-16T05:05:57;7.25;;;2.40;;
20729;SDS011;10526;50.850;12.928;2022-10-16T05:10:19;2.50;;;0.70;;
20729;SDS011;10526;50.850;12.928;2022-10-16T05:14:41;2.20;;;0.70;;
20729;SDS011;10526;50.850;12.928;2022-10-16T05:19:04;2.35;;;0.85;;
20729;SDS011;10526;50.850;12.928;2022-10-16T05:23:46;1.73;;;0.93;;
20729;SDS011;10526;50.850;12.928;2022-10-16T05:28:09;1.75;;;0.93;;
20729;SDS011;10526;50.850;12.928;2022-10-16T05:32:31;4.55;;;1.10;;
20729;SDS011;10526;50.850;12.928;2022-10-16T05:36:53;2.70;;;1.08;;
20729;SDS011;10526;50.850;12.928;2022-10-16T05:41:16;4.07;;;1.20;;
20729;SDS011;10526;50.850;12.928;2022-10-16T05:45:43;3.65;;;1.45;;
20729;SDS011;10526;50.850;12.928;2022-10-16T05:50:05;3.67;;;1.00;;
20729;SDS011;10526;50.850;12.928;2022-10-16T05:54:29;1.00;;;0.88;;
20729;SDS011;10526;50.850;12.928;2022-10-16T05:58:51;8.93;;;1.10;;
20729;SDS011;10526;50.850;12.928;2022-10-16T06:03:14;1.75;;;1.10;;
20729;SDS011;10526;50.850;12.928;2022-10-16T06:07:36;3.08;;;1.33;;
20729;SDS011;10526;50.850;12.928;2022-10-16T06:11:58;1.35;;;0.93;;
20729;SDS011;10526;50.850;12.928;2022-10-16T06:16:21;1.17;;;0.80;;
20729;SDS011;10526;50.850;12.928;2022-10-16T06:20:43;2.75;;;1.35;;
20729;SDS011;10526;50.850;12.928;2022-10-16T06:25:06;1.55;;;1.10;;
20729;SDS011;10526;50.850;12.928;2022-10-16T06:29:28;2.40;;;1.10;;
20729;SDS011;10526;50.850;12.928;2022-10-16T06:33:51;1.02;;;0.88;;
20729;SDS011;10526;50.850;12.928;2022-10-16T06:38:14;2.53;;;0.88;;
20729;SDS011;10526;50.850;12.928;2022-10-16T06:42:36;1.73;;;1.02;;
20729;SDS011;10526;50.850;12.928;2022-10-16T06:46:59;1.42;;;0.77;;
20729;SDS011;10526;50.850;12.928;2022-10-16T06:51:22;2.38;;;0.90;;
20729;SDS011;10526;50.850;12.928;2022-10-16T06:55:46;1.85;;;1.00;;
20729;SDS011;10526;50.850;12.928;2022-10-16T07:00:09;4.78;;;1.60;;
20729;SDS011;10526;50.850;12.928;2022-10-16T07:04:32;2.03;;;1.00;;
20729;SDS011;10526;50.850;12.928;2022-10-16T07:08:54;0.77;;;0.77;;
20729;SDS011;10526;50.850;12.928;2022-10-16T07:13:16;1.27;;;0.70;;
20729;SDS011;10526;50.850;12.928;2022-10-16T07:17:39;1.80;;;1.08;;
20729;SDS011;10526;50.850;12.928;2022-10-16T07:22:01;16.80;;;9.35;;
20729;SDS011;10526;50.850;12.928;2022-10-16T07:26:24;5.32;;;1.70;;
20729;SDS011;10526;50.850;12.928;2022-10-16T07:30:48;3.15;;;0.98;;
20729;SDS011;10526;50.850;12.928;2022-10-16T07:35:10;2.42;;;0.90;;
20729;SDS011;10526;50.850;12.928;2022-10-16T07:39:33;4.30;;;0.80;;
20729;SDS011;10526;50.850;12.928;2022-10-16T07:43:56;1.90;;;0.90;;
20729;SDS011;10526;50.850;12.928;2022-10-16T07:48:22;3.20;;;1.10;;
20729;SDS011;10526;50.850;12.928;2022-10-16T07:52:45;3.20;;;1.33;;
20729;SDS011;10526;50.850;12.928;2022-10-16T07:57:07;2.88;;;1.40;;
20729;SDS011;10526;50.850;12.928;2022-10-16T08:01:30;6.55;;;1.02;;
20729;SDS011;10526;50.850;12.928;2022-10-16T08:05:52;2.92;;;1.50;;
20729;SDS011;10526;50.850;12.928;2022-10-16T08:10:16;5.03;;;1.10;;
20729;SDS011;10526;50.850;12.928;2022-10-16T08:14:40;2.00;;;1.30;;
20729;SDS011;10526;50.850;12.928;2022-10-16T08:19:07;2.00;;;1.27;;
20729;SDS011;10526;50.850;12.928;2022-10-16T08:23:29;1.98;;;1.10;;
20729;SDS011;10526;50.850;12.928;2022-10-16T08:27:52;3.70;;;1.38;;
20729;SDS011;10526;50.850;12.928;2022-10-16T08:32:14;4.03;;;0.93;;
20729;SDS011;10526;50.850;12.928;2022-10-16T08:36:37;4.45;;;1.25;;
20729;SDS011;10526;50.850;12.928;2022-10-16T08:50:09;2.22;;;0.90;;
20729;SDS011;10526;50.850;12.928;2022-10-16T08:54:34;6.13;;;1.40;;
20729;SDS011;10526;50.850;12.928;2022-10-16T08:59:03;1.40;;;0.98;;
20729;SDS011;10526;50.850;12.928;2022-10-16T09:08:40;4.57;;;1.45;;
20729;SDS011;10526;50.850;12.928;2022-10-16T09:13:13;2.08;;;1.10;;
20729;SDS011;10526;50.850;12.928;2022-10-16T09:18:05;1.77;;;0.70;;
20729;SDS011;10526;50.850;12.928;2022-10-16T09:27:26;1.98;;;0.80;;
20729;SDS011;10526;50.850;12.928;2022-10-16T09:31:48;2.17;;;0.98;;
20729;SDS011;10526;50.850;12.928;2022-10-16T09:36:12;1.00;;;0.90;;
20729;SDS011;10526;50.850;12.928;2022-10-16T09:40:36;6.82;;;0.85;;
20729;SDS011;10526;50.850;12.928;2022-10-16T09:45:01;1.95;;;1.00;;
20729;SDS011;10526;50.850;12.928;2022-10-16T09:49:25;2.03;;;0.80;;
20729;SDS011;10526;50.850;12.928;2022-10-16T09:53:48;0.80;;;0.70;;
20729;SDS011;10526;50.850;12.928;2022-10-16T09:58:15;1.58;;;0.77;;
20729;SDS011;10526;50.850;12.928;2022-10-16T10:02:38;2.35;;;0.90;;
20729;SDS011;10526;50.850;12.928;2022-10-16T10:07:00;1.10;;;0.88;;
20729;SDS011;10526;50.850;12.928;2022-10-16T10:11:46;3.00;;;0.98;;
20729;SDS011;10526;50.850;12.928;2022-10-16T10:16:12;3.30;;;0.88;;
20729;SDS011;10526;50.850;12.928;2022-10-16T10:20:45;1.52;;;0.95;;
20729;SDS011;10526;50.850;12.928;2022-10-16T10:25:19;2.33;;;0.80;;
20729;SDS011;10526;50.850;12.928;2022-10-16T10:30:01;2.40;;;1.00;;
20729;SDS011;10526;50.850;12.928;2022-10-16T10:34:53;2.53;;;0.82;;
20729;SDS011;10526;50.850;12.928;2022-10-16T10:39:51;5.20;;;1.58;;
20729;SDS011;10526;50.850;12.928;2022-10-16T10:49:28;2.50;;;1.30;;
20729;SDS011;10526;50.850;12.928;2022-10-16T11:04:25;1.15;;;0.88;;
20729;SDS011;10526;50.850;12.928;2022-10-16T11:09:02;2.10;;;0.88;;
20729;SDS011;10526;50.850;12.928;2022-10-16T11:18:18;4.45;;;1.10;;
20729;SDS011;10526;50.850;12.928;2022-10-16T11:37:33;1.08;;;0.80;;
20729;SDS011;10526;50.850;12.928;2022-10-16T11:42:04;2.13;;;0.75;;
20729;SDS011;10526;50.850;12.928;2022-10-16T11:46:35;1.17;;;0.98;;
20729;SDS011;10526;50.850;12.928;2022-10-16T11:51:42;3.20;;;1.35;;
20729;SDS011;10526;50.850;12.928;2022-10-16T11:56:40;2.03;;;1.05;;
20729;SDS011;10526;50.850;12.928;2022-10-16T12:05:49;0.57;;;0.50;;
20729;SDS011;10526;50.850;12.928;2022-10-16T12:10:42;1.75;;;0.95;;
20729;SDS011;10526;50.850;12.928;2022-10-16T12:24:42;3.40;;;0.93;;
20729;SDS011;10526;50.850;12.928;2022-10-16T12:34:06;2.15;;;0.93;;
20729;SDS011;10526;50.850;12.928;2022-10-16T12:39:02;1.58;;;0.98;;
20729;SDS011;10526;50.850;12.928;2022-10-16T12:43:39;7.85;;;0.98;;
20729;SDS011;10526;50.850;12.928;2022-10-16T12:48:20;6.78;;;3.05;;
20729;SDS011;10526;50.850;12.928;2022-10-16T12:52:57;3.85;;;1.13;;
20729;SDS011;10526;50.850;12.928;2022-10-16T13:07:22;1.85;;;0.95;;
20729;SDS011;10526;50.850;12.928;2022-10-16T13:17:26;2.33;;;0.90;;
20729;SDS011;10526;50.850;12.928;2022-10-16T13:22:22;1.65;;;0.60;;
20729;SDS011;10526;50.850;12.928;2022-10-16T13:27:13;0.60;;;0.60;;
20729;SDS011;10526;50.850;12.928;2022-10-16T13:32:14;1.15;;;0.80;;
20729;SDS011;10526;50.850;12.928;2022-10-16T13:36:44;4.40;;;1.17;;
20729;SDS011;10526;50.850;12.928;2022-10-16T13:41:14;3.33;;;1.20;;
20729;SDS011;10526;50.850;12.928;2022-10-16T13:45:40;1.83;;;1.10;;
20729;SDS011;10526;50.850;12.928;2022-10-16T13:50:04;2.60;;;0.88;;
20729;SDS011;10526;50.850;12.928;2022-10-16T13:54:32;2.83;;;1.23;;
20729;SDS011;10526;50.850;12.928;2022-10-16T13:59:01;2.13;;;0.82;;
20729;SDS011;10526;50.850;12.928;2022-10-16T14:03:47;3.08;;;0.98;;
20729;SDS011;10526;50.850;12.928;2022-10-16T14:08:11;3.35;;;1.30;;
20729;SDS011;10526;50.850;12.928;2022-10-16T14:12:35;5.95;;;1.13;;
20729;SDS011;10526;50.850;12.928;2022-10-16T14:16:58;2.47;;;1.20;;
20729;SDS011;10526;50.850;12.928;2022-10-16T14:21:21;2.60;;;0.95;;
20729;SDS011;10526;50.850;12.928;2022-10-16T14:25:45;6.30;;;1.20;;
20729;SDS011;10526;50.850;12.928;2022-10-16T14:34:39;1.40;;;0.85;;
20729;SDS011;10526;50.850;12.928;2022-10-16T14:39:03;2.13;;;1.10;;
20729;SDS011;10526;50.850;12.928;2022-10-16T14:43:40;3.15;;;1.35;;
20729;SDS011;10526;50.850;12.928;2022-10-16T14:48:16;1.83;;;1.00;;
20729;SDS011;10526;50.850;12.928;2022-10-16T14:52:40;2.45;;;1.30;;
20729;SDS011;10526;50.850;12.928;2022-10-16T14:57:16;1.92;;;1.10;;
20729;SDS011;10526;50.850;12.928;2022-10-16T15:01:48;1.80;;;1.10;;
20729;SDS011;10526;50.850;12.928;2022-10-16T15:06:11;2.75;;;1.30;;
20729;SDS011;10526;50.850;12.928;2022-10-16T15:10:42;4.32;;;1.10;;
20729;SDS011;10526;50.850;12.928;2022-10-16T15:20:01;3.20;;;1.90;;
20729;SDS011;10526;50.850;12.928;2022-10-16T15:24:25;2.35;;;1.33;;
20729;SDS011;10526;50.850;12.928;2022-10-16T15:28:47;2.60;;;1.20;;
20729;SDS011;10526;50.850;12.928;2022-10-16T15:33:15;21.52;;;12.02;;
20729;SDS011;10526;50.850;12.928;2022-10-16T15:37:42;2.33;;;1.48;;
20729;SDS011;10526;50.850;12.928;2022-10-16T15:42:04;6.53;;;1.50;;
20729;SDS011;10526;50.850;12.928;2022-10-16T15:46:28;2.22;;;1.13;;
20729;SDS011;10526;50.850;12.928;2022-10-16T15:50:52;13.48;;;4.00;;
20729;SDS011;10526;50.850;12.928;2022-10-16T15:55:15;6.20;;;2.00;;
20729;SDS011;10526;50.850;12.928;2022-10-16T15:59:39;3.83;;;1.40;;
20729;SDS011;10526;50.850;12.928;2022-10-16T16:04:01;2.50;;;1.40;;
20729;SDS011;10526;50.850;12.928;2022-10-16T16:08:36;5.22;;;1.83;;
20729;SDS011;10526;50.850;12.928;2022-10-16T16:12:59;4.60;;;2.20;;
20729;SDS011;10526;50.850;12.928;2022-10-16T16:17:21;7.57;;;2.90;;
20729;SDS011;10526;50.850;12.928;2022-10-16T16:21:45;9.73;;;4.03;;
20729;SDS011;10526;50.850;12.928;2022-10-16T16:26:13;12.25;;;3.38;;
20729;SDS011;10526;50.850;12.928;2022-10-16T16:30:50;9.80;;;3.65;;
20729;SDS011;10526;50.850;12.928;2022-10-16T16:35:13;13.10;;;5.65;;
20729;SDS011;10526;50.850;12.928;2022-10-16T16:39:36;15.75;;;7.72;;
20729;SDS011;10526;50.850;12.928;2022-10-16T16:44:03;16.02;;;7.45;;
20729;SDS011;10526;50.850;12.928;2022-10-16T16:48:29;12.38;;;6.25;;
20729;SDS011;10526;50.850;12.928;2022-10-16T16:52:52;11.13;;;4.65;;
20729;SDS011;10526;50.850;12.928;2022-10-16T16:57:15;23.77;;;13.15;;
20729;SDS011;10526;50.850;12.928;2022-10-16T17:01:37;15.57;;;6.90;;
20729;SDS011;10526;50.850;12.928;2022-10-16T17:06:01;8.57;;;4.05;;
20729;SDS011;10526;50.850;12.928;2022-10-16T17:10:29;6.80;;;3.47;;
20729;SDS011;10526;50.850;12.928;2022-10-16T17:14:52;8.60;;;3.08;;
20729;SDS011;10526;50.850;12.928;2022-10-16T17:19:16;7.65;;;3.13;;
20729;SDS011;10526;50.850;12.928;2022-10-16T17:23:40;9.23;;;3.22;;
20729;SDS011;10526;50.850;12.928;2022-10-16T17:28:04;13.25;;;3.13;;
20729;SDS011;10526;50.850;12.928;2022-10-16T17:32:27;8.82;;;2.50;;
20729;SDS011;10526;50.850;12.928;2022-10-16T17:36:51;6.25;;;2.72;;
20729;SDS011;10526;50.850;12.928;2022-10-16T17:41:21;9.80;;;2.78;;
20729;SDS011;10526;50.850;12.928;2022-10-16T17:45:45;9.75;;;4.32;;
20729;SDS011;10526;50.850;12.928;2022-10-16T17:50:08;10.95;;;4.47;;
20729;SDS011;10526;50.850;12.928;2022-10-16T17:54:35;16.48;;;6.05;;
20729;SDS011;10526;50.850;12.928;2022-10-16T18:04:30;15.77;;;5.28;;
20729;SDS011;10526;50.850;12.928;2022-10-16T18:08:53;13.75;;;4.80;;
20729;SDS011;10526;50.850;12.928;2022-10-16T18:13:18;14.05;;;5.13;;
20729;SDS011;10526;50.850;12.928;2022-10-16T18:17:41;10.77;;;4.30;;
20729;SDS011;10526;50.850;12.928;2022-10-16T18:22:04;13.23;;;4.78;;
20729;SDS011;10526;50.850;12.928;2022-10-16T18:26:27;14.73;;;4.60;;
20729;SDS011;10526;50.850;12.928;2022-10-16T18:31:33;15.02;;;5.93;;
20729;SDS011;10526;50.850;12.928;2022-10-16T18:35:37;13.15;;;5.28;;
20729;SDS011;10526;50.850;12.928;2022-10-16T18:40:01;15.60;;;6.05;;
20729;SDS011;10526;50.850;12.928;2022-10-16T18:44:25;13.90;;;6.57;;
20729;SDS011;10526;50.850;12.928;2022-10-16T18:48:48;12.45;;;5.75;;
20729;SDS011;10526;50.850;12.928;2022-10-16T18:53:13;17.65;;;5.85;;
20729;SDS011;10526;50.850;12.928;2022-10-16T18:57:35;15.23;;;6.20;;
20729;SDS011;10526;50.850;12.928;2022-10-16T19:01:59;16.50;;;7.47;;
20729;SDS011;10526;50.850;12.928;2022-10-16T19:06:22;15.93;;;6.90;;
20729;SDS011;10526;50.850;12.928;2022-10-16T19:10:45;14.18;;;6.53;;
20729;SDS011;10526;50.850;12.928;2022-10-16T19:15:08;16.95;;;8.55;;
20729;SDS011;10526;50.850;12.928;2022-10-16T19:19:31;19.15;;;7.72;;
20729;SDS011;10526;50.850;12.928;2022-10-16T19:23:54;18.45;;;8.65;;
20729;SDS011;10526;50.850;12.928;2022-10-16T19:28:21;21.00;;;9.68;;
20729;SDS011;10526;50.850;12.928;2022-10-16T19:32:45;18.30;;;7.85;;
20729;SDS011;10526;50.850;12.928;2022-10-16T19:37:10;14.10;;;7.75;;
20729;SDS011;10526;50.850;12.928;2022-10-16T19:41:32;14.30;;;7.57;;
20729;SDS011;10526;50.850;12.928;2022-10-16T19:46:01;17.48;;;8.15;;
20729;SDS011;10526;50.850;12.928;2022-10-16T19:50:28;20.38;;;8.60;;
20729;SDS011;10526;50.850;12.928;2022-10-16T19:54:51;15.95;;;8.52;;
20729;SDS011;10526;50.850;12.928;2022-10-16T19:59:17;12.85;;;7.30;;
20729;SDS011;10526;50.850;12.928;2022-10-16T20:03:44;17.48;;;8.77;;
20729;SDS011;10526;50.850;12.928;2022-10-16T20:08:08;22.70;;;11.07;;
20729;SDS011;10526;50.850;12.928;2022-10-16T20:12:31;19.88;;;10.98;;
20729;SDS011;10526;50.850;12.928;2022-10-16T20:16:54;23.23;;;12.48;;
20729;SDS011;10526;50.850;12.928;2022-10-16T20:21:20;23.15;;;14.38;;
20729;SDS011;10526;50.850;12.928;2022-10-16T20:25:50;30.70;;;14.93;;
20729;SDS011;10526;50.850;12.928;2022-10-16T20:30:13;16.48;;;8.75;;
20729;SDS011;10526;50.850;12.928;2022-10-16T20:34:36;24.48;;;9.63;;
20729;SDS011;10526;50.850;12.928;2022-10-16T20:39:04;11.57;;;5.75;;
20729;SDS011;10526;50.850;12.928;2022-10-16T20:43:29;17.73;;;9.88;;
20729;SDS011;10526;50.850;12.928;2022-10-16T20:47:52;24.92;;;12.20;;
20729;SDS011;10526;50.850;12.928;2022-10-16T20:52:14;15.40;;;8.10;;
20729;SDS011;10526;50.850;12.928;2022-10-16T20:56:37;30.73;;;13.93;;
20729;SDS011;10526;50.850;12.928;2022-10-16T21:01:03;23.23;;;11.82;;
20729;SDS011;10526;50.850;12.928;2022-10-16T21:05:32;21.92;;;9.60;;
20729;SDS011;10526;50.850;12.928;2022-10-16T21:10:10;22.90;;;10.93;;
20729;SDS011;10526;50.850;12.928;2022-10-16T21:14:33;18.48;;;8.63;;
20729;SDS011;10526;50.850;12.928;2022-10-16T21:19:02;18.20;;;7.43;;
20729;SDS011;10526;50.850;12.928;2022-10-16T21:23:25;18.70;;;7.85;;
20729;SDS011;10526;50.850;12.928;2022-10-16T21:27:48;11.07;;;5.35;;
20729;SDS011;10526;50.850;12.928;2022-10-16T21:32:10;15.98;;;6.53;;
20729;SDS011;10526;50.850;12.928;2022-10-16T21:36:34;14.18;;;6.18;;
20729;SDS011;10526;50.850;12.928;2022-10-16T21:40:59;11.20;;;5.75;;
20729;SDS011;10526;50.850;12.928;2022-10-16T21:45:21;13.82;;;6.03;;
20729;SDS011;10526;50.850;12.928;2022-10-16T21:49:44;16.27;;;5.93;;
20729;SDS011;10526;50.850;12.928;2022-10-16T21:54:08;12.25;;;5.03;;
20729;SDS011;10526;50.850;12.928;2022-10-16T21:58:36;12.65;;;6.15;;
20729;SDS011;10526;50.850;12.928;2022-10-16T22:02:59;19.30;;;7.55;;
20729;SDS011;10526;50.850;12.928;2022-10-16T22:07:21;18.02;;;7.25;;
20729;SDS011;10526;50.850;12.928;2022-10-16T22:11:44;16.08;;;6.75;;
20729;SDS011;10526;50.850;12.928;2022-10-16T22:16:07;15.40;;;7.22;;
20729;SDS011;10526;50.850;12.928;2022-10-16T22:20:30;14.90;;;6.65;;
20729;SDS011;10526;50.850;12.928;2022-10-16T22:24:52;12.75;;;6.53;;
20729;SDS011;10526;50.850;12.928;2022-10-16T22:29:15;15.68;;;6.93;;
20729;SDS011;10526;50.850;12.928;2022-10-16T22:33:38;15.27;;;7.35;;
20729;SDS011;10526;50.850;12.928;2022-10-16T22:38:04;14.55;;;6.75;;
20729;SDS011;10526;50.850;12.928;2022-10-16T22:42:27;16.38;;;7.78;;
20729;SDS011;10526;50.850;12.928;2022-10-16T22:46:49;14.48;;;8.20;;
20729;SDS011;10526;50.850;12.928;2022-10-16T22:51:12;15.10;;;7.85;;
20729;SDS011;10526;50.850;12.928;2022-10-16T22:55:37;16.40;;;7.70;;
20729;SDS011;10526;50.850;12.928;2022-10-16T23:00:00;13.77;;;6.90;;
20729;SDS011;10526;50.850;12.928;2022-10-16T23:04:22;16.25;;;7.10;;
20729;SDS011;10526;50.850;12.928;2022-10-16T23:08:49;19.15;;;9.07;;
20729;SDS011;10526;50.850;12.928;2022-10-16T23:13:14;14.35;;;6.80;;
20729;SDS011;10526;50.850;12.928;2022-10-16T23:17:36;15.43;;;7.43;;
20729;SDS011;10526;50.850;12.928;2022-10-16T23:21:59;17.58;;;7.25;;
20729;SDS011;10526;50.850;12.928;2022-10-16T23:26:23;15.43;;;5.63;;
20729;SDS011;10526;50.850;12.928;2022-10-16T23:30:47;13.35;;;7.00;;
20729;SDS011;10526;50.850;12.928;2022-10-16T23:35:09;15.38;;;7.85;;
20729;SDS011;10526;50.850;12.928;2022-10-16T23:39:32;12.77;;;6.85;;
20729;SDS011;10526;50.850;12.928;2022-10-16T23:43:54;15.57;;;8.15;;
20729;SDS011;10526;50.850;12.928;2022-10-16T23:48:17;15.25;;;8.55;;
20729;SDS011;10526;50.850;12.928;2022-10-16T23:52:39;18.38;;;8.68;;
20729;SDS011;10526;50.850;12.928;2022-10-16T23:57:02;16.67;;;9.20;;
